Time;durP1;ratioP1;P1;durP2;ratioP2;P2;SDS_P1;SDS_P2;PMS_P1;PMS_P2;Temp;Humidity;BMP_temperature;BMP_pressure;BME280_temperature;BME280_humidity;BME280_pressure;Samples;Min_cycle;Max_cycle;Signal;HPM_P1;HPM_P2
2021/10/06 00:02:22;;;;;;;0.20;0.20;;;;;;;10.43;98.61;99507.31;5084637;28;20487;-66
2021/10/06 00:04:47;;;;;;;0.20;0.20;;;;;;;10.46;98.36;99498.59;5084859;28;20230;-65
2021/10/06 00:07:13;;;;;;;0.20;0.20;;;;;;;10.46;98.53;99493.41;5084465;28;20031;-68
2021/10/06 00:09:38;;;;;;;0.30;0.30;;;;;;;10.47;98.47;99493.38;5084709;28;20590;-67
2021/10/06 00:12:04;;;;;;;0.30;0.30;;;;;;;10.48;98.22;99491.66;5084516;28;20029;-67
2021/10/06 00:14:29;;;;;;;0.20;0.20;;;;;;;10.50;98.43;99484.66;5084651;28;20029;-67
2021/10/06 00:16:55;;;;;;;0.30;0.30;;;;;;;10.49;98.40;99482.97;5084661;28;20052;-67
2021/10/06 00:19:20;;;;;;;0.30;0.30;;;;;;;10.50;98.16;99489.84;5084614;28;20109;-66
2021/10/06 00:21:46;;;;;;;0.30;0.30;;;;;;;10.51;98.51;99499.38;5084162;28;20076;-66
2021/10/06 00:24:11;;;;;;;0.20;0.20;;;;;;;10.52;98.34;99493.28;5084315;28;20035;-67
2021/10/06 00:26:37;;;;;;;0.30;0.30;;;;;;;10.53;98.37;99501.03;5084643;28;20519;-67
2021/10/06 00:29:03;;;;;;;0.30;0.30;;;;;;;10.53;98.47;99492.38;5084397;28;20024;-67
2021/10/06 00:31:28;;;;;;;0.28;0.28;;;;;;;10.57;98.52;99499.22;5084294;28;20038;-67
2021/10/06 00:33:54;;;;;;;0.20;0.20;;;;;;;10.57;98.42;99495.78;5084222;28;20052;-67
2021/10/06 00:36:19;;;;;;;0.30;0.30;;;;;;;10.58;98.64;99490.53;5100104;28;20020;-67
2021/10/06 00:38:44;;;;;;;0.28;0.28;;;;;;;10.58;98.42;99495.72;5084009;28;20032;-67
2021/10/06 00:41:10;;;;;;;0.30;0.30;;;;;;;10.58;98.32;99489.69;5084145;28;20084;-66
2021/10/06 00:43:35;;;;;;;0.20;0.20;;;;;;;10.61;98.41;99494.78;5083978;28;20070;-67
2021/10/06 00:46:01;;;;;;;0.20;0.20;;;;;;;10.60;98.46;99496.56;5083981;28;20472;-67
2021/10/06 00:48:27;;;;;;;0.30;0.30;;;;;;;10.59;98.51;99502.63;5084126;28;20024;-67
2021/10/06 00:50:52;;;;;;;0.20;0.20;;;;;;;10.59;98.35;99494.84;5083870;28;20021;-67
2021/10/06 00:53:22;;;;;;;0.40;0.40;;;;;;;10.59;98.35;99494.00;5083827;28;20526;-66
2021/10/06 00:55:47;;;;;;;0.30;0.30;;;;;;;10.58;98.11;99495.72;5083953;28;20021;-67
2021/10/06 00:58:14;;;;;;;0.30;0.30;;;;;;;10.58;98.34;99500.06;5083847;28;20073;-67
2021/10/06 01:00:39;;;;;;;0.20;0.20;;;;;;;10.60;98.28;99488.78;5083683;28;20089;-66
2021/10/06 01:03:04;;;;;;;0.20;0.20;;;;;;;10.59;98.29;99491.41;5083491;28;20047;-66
2021/10/06 01:05:30;;;;;;;0.30;0.30;;;;;;;10.58;98.33;99489.69;5083934;28;20118;-67
2021/10/06 01:07:57;;;;;;;0.20;0.20;;;;;;;10.60;98.54;99491.38;5083541;28;20048;-67
2021/10/06 01:10:22;;;;;;;0.20;0.20;;;;;;;10.62;98.47;99493.94;5083852;28;20024;-66
2021/10/06 01:12:48;;;;;;;0.20;0.20;;;;;;;10.60;98.13;99491.38;5083504;28;20017;-66
2021/10/06 01:15:14;;;;;;;1.05;1.05;;;;;;;10.60;98.44;99485.31;5083529;28;20058;-65
2021/10/06 01:17:40;;;;;;;0.30;0.30;;;;;;;10.60;98.44;99493.97;5083537;28;20025;-66
2021/10/06 01:20:07;;;;;;;0.20;0.20;;;;;;;10.60;98.39;99488.78;5083244;28;20439;-67
2021/10/06 01:22:33;;;;;;;0.20;0.20;;;;;;;10.58;98.29;99493.13;5083420;28;20025;-67
2021/10/06 01:25:02;;;;;;;0.20;0.20;;;;;;;10.61;98.49;99495.66;5082720;28;20020;-66
2021/10/06 01:27:27;;;;;;;0.28;0.28;;;;;;;10.59;98.44;99489.66;5083299;28;20027;-66
2021/10/06 01:29:53;;;;;;;0.20;0.20;;;;;;;10.63;98.65;99499.09;5065242;28;20088;-66
2021/10/06 01:32:19;;;;;;;0.20;0.20;;;;;;;10.64;98.44;99495.59;5083395;28;20020;-67
2021/10/06 01:34:56;;;;;;;0.28;0.28;;;;;;;10.66;98.79;99498.16;5083209;28;20039;-66
2021/10/06 01:37:22;;;;;;;0.30;0.30;;;;;;;10.69;98.74;99500.66;5083422;28;20030;-67
2021/10/06 01:39:47;;;;;;;0.20;0.20;;;;;;;10.70;98.56;99498.94;5083354;28;20100;-67
2021/10/06 01:42:12;;;;;;;0.30;0.30;;;;;;;10.69;98.44;99499.84;5083099;28;20059;-67
2021/10/06 01:44:38;;;;;;;0.20;0.20;;;;;;;10.69;98.40;99505.03;5083318;28;20028;-67
2021/10/06 01:47:03;;;;;;;0.20;0.20;;;;;;;10.69;98.55;99510.22;5083112;28;20029;-67
2021/10/06 01:49:29;;;;;;;0.30;0.30;;;;;;;10.69;98.42;99516.25;5083126;28;20051;-67
2021/10/06 01:51:54;;;;;;;0.20;0.20;;;;;;;10.68;98.63;99511.94;5083236;28;20082;-66
2021/10/06 01:54:19;;;;;;;0.20;0.20;;;;;;;10.69;98.63;99511.06;5083229;28;20082;-67
2021/10/06 01:56:45;;;;;;;0.28;0.28;;;;;;;10.71;98.76;99503.22;5083130;28;20092;-67
2021/10/06 01:59:10;;;;;;;0.30;0.30;;;;;;;10.69;98.65;99499.84;5082949;28;20020;-67
2021/10/06 02:01:36;;;;;;;0.30;0.30;;;;;;;10.75;98.69;99512.66;5083182;28;20046;-67
2021/10/06 02:04:01;;;;;;;0.20;0.20;;;;;;;10.75;98.74;99512.66;5082871;28;20047;-68
2021/10/06 02:06:26;;;;;;;0.30;0.30;;;;;;;10.75;98.60;99507.47;5083002;28;20032;-66
2021/10/06 02:08:52;;;;;;;0.20;0.20;;;;;;;10.78;98.72;99518.63;5082827;28;20024;-66
2021/10/06 02:11:17;;;;;;;0.20;0.20;;;;;;;10.80;99.04;99518.59;5082909;28;20036;-67
2021/10/06 02:13:42;;;;;;;0.30;0.30;;;;;;;10.81;98.89;99522.03;5082991;28;20017;-67
2021/10/06 02:16:08;;;;;;;0.20;0.20;;;;;;;10.82;98.89;99515.94;5082813;28;20032;-66
2021/10/06 02:18:33;;;;;;;0.20;0.20;;;;;;;10.86;98.81;99534.00;5083005;28;20066;-67
2021/10/06 02:20:59;;;;;;;0.30;0.30;;;;;;;10.87;98.54;99527.94;5082538;28;20435;-66
2021/10/06 02:23:24;;;;;;;0.20;0.20;;;;;;;10.87;98.90;99524.50;5082685;28;20434;-68
2021/10/06 02:25:50;;;;;;;0.20;0.20;;;;;;;10.87;98.59;99525.34;5082744;28;20035;-68
2021/10/06 02:28:15;;;;;;;0.20;0.20;;;;;;;10.86;98.42;99517.59;5082975;28;20170;-68
2021/10/06 02:30:41;;;;;;;0.22;0.22;;;;;;;10.88;98.71;99521.00;5082801;28;20025;-67
2021/10/06 02:33:06;;;;;;;0.22;0.22;;;;;;;10.90;98.85;99533.06;5082585;28;20021;-66
2021/10/06 02:35:32;;;;;;;0.20;0.20;;;;;;;10.93;98.84;99524.34;5082782;28;20028;-67
2021/10/06 02:37:57;;;;;;;0.30;0.30;;;;;;;10.96;98.58;99524.25;5085765;28;20116;-67
2021/10/06 02:40:23;;;;;;;0.28;0.28;;;;;;;10.98;98.92;99534.63;5086393;28;20012;-67
2021/10/06 02:42:49;;;;;;;0.20;0.20;;;;;;;10.99;98.50;99533.75;5086170;28;20025;-67
2021/10/06 02:45:17;;;;;;;0.30;0.30;;;;;;;11.02;98.71;99536.28;5086345;28;20059;-67
2021/10/06 02:47:43;;;;;;;0.20;0.20;;;;;;;11.02;98.50;99533.66;5086166;28;20169;-67
2021/10/06 02:50:11;;;;;;;0.20;0.20;;;;;;;11.06;98.75;99534.44;5068395;28;20016;-67
2021/10/06 02:52:37;;;;;;;0.30;0.30;;;;;;;11.10;98.33;99539.50;5086158;28;20491;-66
2021/10/06 02:55:03;;;;;;;0.20;0.20;;;;;;;11.12;98.49;99545.53;5086121;28;20033;-67
2021/10/06 02:57:29;;;;;;;0.30;0.30;;;;;;;11.15;98.56;99540.25;5086123;28;20028;-67
2021/10/06 02:59:55;;;;;;;0.20;0.20;;;;;;;11.16;98.33;99543.72;5086098;28;20020;-69
2021/10/06 03:02:20;;;;;;;0.30;0.30;;;;;;;11.15;98.52;99545.44;5101367;28;20316;-68
2021/10/06 03:04:45;;;;;;;0.20;0.20;;;;;;;11.14;98.29;99548.09;5085912;28;20380;-67
2021/10/06 03:07:11;;;;;;;0.20;0.20;;;;;;;11.13;98.35;99549.00;5085761;28;20016;-68
2021/10/06 03:09:36;;;;;;;0.22;0.22;;;;;;;11.11;98.24;99549.03;5085889;28;20028;-67
2021/10/06 03:12:02;;;;;;;0.20;0.20;;;;;;;11.08;97.96;99551.69;5085858;28;20028;-68
2021/10/06 03:14:28;;;;;;;0.20;0.20;;;;;;;11.06;97.94;99555.22;5086049;28;20032;-67
2021/10/06 03:16:53;;;;;;;0.20;0.20;;;;;;;11.01;98.07;99553.59;5085959;28;20060;-67
2021/10/06 03:19:18;;;;;;;0.20;0.20;;;;;;;10.98;98.03;99548.47;5085669;28;20233;-67
2021/10/06 03:21:44;;;;;;;0.63;0.63;;;;;;;10.98;98.26;99550.19;5085566;28;20055;-68
2021/10/06 03:24:09;;;;;;;0.20;0.20;;;;;;;10.97;98.07;99540.72;5085502;28;20028;-68
2021/10/06 03:26:35;;;;;;;0.30;0.30;;;;;;;10.96;98.26;99546.81;5085451;28;20016;-67
2021/10/06 03:29:00;;;;;;;0.20;0.20;;;;;;;10.91;98.07;99547.75;5085663;28;20078;-67
2021/10/06 03:31:26;;;;;;;0.20;0.20;;;;;;;10.93;98.39;99554.66;5085467;28;20020;-67
2021/10/06 03:33:51;;;;;;;0.20;0.20;;;;;;;10.85;98.43;99549.63;5085368;28;20024;-66
2021/10/06 03:36:17;;;;;;;0.20;0.20;;;;;;;10.91;98.36;99563.34;5085242;28;20230;-67
2021/10/06 03:38:42;;;;;;;0.25;0.25;;;;;;;10.90;98.38;99572.03;5085161;28;20021;-67
2021/10/06 03:41:07;;;;;;;0.20;0.20;;;;;;;10.92;98.32;99582.38;5085283;28;20028;-67
2021/10/06 03:43:33;;;;;;;0.20;0.20;;;;;;;10.93;98.67;99583.25;5085103;28;20492;-67
2021/10/06 03:45:58;;;;;;;0.20;0.20;;;;;;;10.92;98.40;99579.78;5085184;28;20468;-67
2021/10/06 03:48:24;;;;;;;0.20;0.20;;;;;;;10.89;98.63;99570.28;5084790;28;20074;-67
2021/10/06 03:50:49;;;;;;;0.20;0.20;;;;;;;10.93;98.90;99575.44;5085099;28;20029;-67
2021/10/06 03:53:14;;;;;;;0.20;0.20;;;;;;;11.00;99.03;99574.41;5084805;28;20031;-67
2021/10/06 03:55:40;;;;;;;0.30;0.30;;;;;;;11.06;98.96;99573.38;5084893;28;20027;-67
2021/10/06 03:58:07;;;;;;;0.20;0.20;;;;;;;11.12;99.13;99570.63;5084886;28;20043;-68
2021/10/06 04:00:32;;;;;;;0.20;0.20;;;;;;;11.11;98.50;99575.00;5085055;28;20304;-66
2021/10/06 04:02:58;;;;;;;0.20;0.20;;;;;;;11.10;98.78;99588.84;5084656;28;20044;-66
2021/10/06 04:05:23;;;;;;;0.30;0.30;;;;;;;11.11;98.65;99592.31;5084599;28;20080;-70
2021/10/06 04:07:48;;;;;;;0.20;0.20;;;;;;;11.13;98.67;99601.78;5084587;28;20354;-67
2021/10/06 04:10:14;;;;;;;0.20;0.20;;;;;;;11.11;98.66;99606.19;5084574;28;20108;-66
2021/10/06 04:12:39;;;;;;;0.20;0.20;;;;;;;11.10;98.38;99614.84;5084470;28;20388;-67
2021/10/06 04:15:05;;;;;;;0.30;0.30;;;;;;;11.09;98.44;99620.94;5084386;28;20023;-67
2021/10/06 04:17:30;;;;;;;0.38;0.38;;;;;;;11.10;98.50;99620.03;5084449;28;20080;-67
2021/10/06 04:19:56;;;;;;;0.30;0.30;;;;;;;11.08;99.07;99629.63;5084294;28;20109;-67
2021/10/06 04:22:21;;;;;;;0.30;0.30;;;;;;;11.11;98.79;99636.47;5083975;28;20586;-67
2021/10/06 04:24:47;;;;;;;0.20;0.20;;;;;;;11.14;98.99;99639.00;5084407;28;20051;-67
2021/10/06 04:27:12;;;;;;;0.30;0.30;;;;;;;11.17;99.09;99636.34;5084310;28;20027;-69
2021/10/06 04:29:38;;;;;;;0.20;0.20;;;;;;;11.08;99.36;99632.22;5084211;28;20051;-68
2021/10/06 04:32:03;;;;;;;0.20;0.20;;;;;;;11.19;98.98;99638.91;5084077;28;20028;-69
2021/10/06 04:34:30;;;;;;;0.30;0.30;;;;;;;11.20;98.76;99646.66;5084136;28;20024;-68
2021/10/06 04:36:55;;;;;;;0.30;0.30;;;;;;;11.23;98.79;99651.78;5084265;28;20024;-68
2021/10/06 04:39:20;;;;;;;0.30;0.30;;;;;;;11.23;99.00;99656.97;5084164;28;20494;-68
2021/10/06 04:41:46;;;;;;;0.20;0.20;;;;;;;11.23;99.09;99661.34;5084287;28;20054;-68
2021/10/06 04:44:11;;;;;;;0.30;0.30;;;;;;;11.27;99.36;99662.97;5084058;28;20035;-67
2021/10/06 04:46:37;;;;;;;0.20;0.20;;;;;;;11.30;99.10;99664.63;5084066;28;20028;-68
2021/10/06 04:49:03;;;;;;;0.30;0.30;;;;;;;11.28;99.18;99667.25;5084098;28;20452;-68
2021/10/06 04:51:29;;;;;;;0.30;0.30;;;;;;;11.28;99.46;99670.72;5083721;28;20029;-68
2021/10/06 04:53:54;;;;;;;0.20;0.20;;;;;;;11.34;99.37;99679.28;5083756;28;20028;-69
2021/10/06 04:56:20;;;;;;;0.30;0.30;;;;;;;11.40;99.18;99686.94;5083763;28;20040;-69
2021/10/06 04:58:45;;;;;;;0.25;0.25;;;;;;;11.42;99.52;99686.88;5065796;28;20024;-69
2021/10/06 05:01:11;;;;;;;0.20;0.20;;;;;;;11.44;99.52;99687.72;5082859;28;20077;-68
2021/10/06 05:03:36;;;;;;;0.30;0.30;;;;;;;11.49;99.54;99704.91;5083556;28;20024;-69
2021/10/06 05:06:01;;;;;;;0.20;0.20;;;;;;;11.46;99.66;99693.72;5083860;28;20024;-69
2021/10/06 05:08:27;;;;;;;0.20;0.20;;;;;;;11.50;99.77;99701.41;5083724;28;20024;-69
2021/10/06 05:10:53;;;;;;;0.30;0.30;;;;;;;11.50;99.75;99700.56;5083856;28;20108;-72
2021/10/06 05:13:18;;;;;;;0.25;0.25;;;;;;;11.53;99.74;99705.69;5083632;28;20028;-69
2021/10/06 05:15:44;;;;;;;0.77;0.77;;;;;;;11.55;99.76;99703.06;5083637;28;20013;-68
2021/10/06 05:18:09;;;;;;;0.20;0.20;;;;;;;11.49;100.00;99704.91;5083621;28;20084;-69
2021/10/06 05:20:34;;;;;;;0.70;0.70;;;;;;;11.57;99.99;99709.91;5083275;28;20059;-69
2021/10/06 05:23:00;;;;;;;0.25;0.25;;;;;;;11.55;99.93;99711.69;5083390;28;20032;-70
2021/10/06 05:25:25;;;;;;;1.08;1.02;;;;;;;11.57;99.87;99711.66;5065108;28;20043;-68
2021/10/06 05:27:51;;;;;;;0.30;0.30;;;;;;;11.62;100.00;99717.59;5083417;28;20032;-67
2021/10/06 05:30:17;;;;;;;0.75;0.75;;;;;;;11.62;99.74;99715.88;5083451;28;20021;-68
2021/10/06 05:32:43;;;;;;;0.25;0.25;;;;;;;11.65;99.85;99717.53;5083262;28;20360;-68
2021/10/06 05:35:09;;;;;;;0.30;0.30;;;;;;;11.72;99.81;99724.31;5083654;28;20035;-68
2021/10/06 05:37:35;;;;;;;0.30;0.30;;;;;;;11.74;99.66;99729.47;5083171;28;20047;-68
2021/10/06 05:40:00;;;;;;;0.20;0.20;;;;;;;11.80;99.57;99744.91;5083515;28;20059;-68
2021/10/06 05:42:26;;;;;;;0.30;0.30;;;;;;;11.83;99.66;99755.25;5083180;28;20025;-68
2021/10/06 05:44:51;;;;;;;0.40;0.40;;;;;;;11.84;99.74;99756.06;5083129;28;20033;-67
2021/10/06 05:47:17;;;;;;;0.30;0.30;;;;;;;11.85;99.47;99753.44;5083369;28;20024;-68
2021/10/06 05:49:42;;;;;;;0.20;0.20;;;;;;;11.84;99.61;99750.88;5083160;28;20031;-67
2021/10/06 05:52:07;;;;;;;0.30;0.30;;;;;;;11.83;99.59;99750.03;5083316;28;20033;-67
2021/10/06 05:54:34;;;;;;;0.20;0.20;;;;;;;11.82;99.97;99752.69;5083164;28;20028;-68
2021/10/06 05:57:00;;;;;;;0.28;0.28;;;;;;;11.81;99.68;99757.00;5083244;28;20036;-68
2021/10/06 05:59:26;;;;;;;0.30;0.30;;;;;;;11.82;99.58;99769.13;5083089;28;20103;-68
2021/10/06 06:01:51;;;;;;;0.32;0.32;;;;;;;11.83;99.64;99775.19;5083350;28;20077;-68
2021/10/06 06:04:19;;;;;;;0.20;0.20;;;;;;;11.81;99.22;99780.44;5082787;28;20012;-68
2021/10/06 06:06:45;;;;;;;0.20;0.20;;;;;;;11.83;99.37;99785.59;5082948;28;20016;-68
2021/10/06 06:09:11;;;;;;;0.30;0.30;;;;;;;11.80;99.66;99788.25;5082864;28;20031;-67
2021/10/06 06:11:36;;;;;;;0.30;0.30;;;;;;;11.83;99.54;99801.19;5084517;28;20025;-67
2021/10/06 06:14:02;;;;;;;0.20;0.20;;;;;;;11.81;99.54;99806.44;5086978;28;20380;-67
2021/10/06 06:16:27;;;;;;;0.20;0.20;;;;;;;11.80;99.61;99816.88;5087267;28;20146;-68
2021/10/06 06:18:53;;;;;;;0.30;0.30;;;;;;;11.83;99.59;99816.78;5086775;28;20028;-67
2021/10/06 06:21:18;;;;;;;0.20;0.20;;;;;;;11.83;99.28;99828.06;5086500;28;20090;-67
2021/10/06 06:23:44;;;;;;;1.85;1.75;;;;;;;11.80;99.82;99824.66;5086527;28;20031;-67
2021/10/06 06:26:09;;;;;;;1.15;1.05;;;;;;;11.83;99.80;99833.25;5086782;28;20024;-66
2021/10/06 06:28:37;;;;;;;0.30;0.30;;;;;;;11.86;99.86;99830.59;5086435;28;20024;-66
2021/10/06 06:31:02;;;;;;;0.30;0.30;;;;;;;11.92;99.49;99831.34;5086491;28;20468;-68
2021/10/06 06:33:28;;;;;;;0.30;0.30;;;;;;;11.91;99.42;99838.28;5086627;28;20031;-66
2021/10/06 06:35:53;;;;;;;0.20;0.20;;;;;;;11.92;99.51;99841.75;5086697;28;20024;-67
2021/10/06 06:38:18;;;;;;;0.30;0.30;;;;;;;11.90;99.27;99845.22;5086576;28;20025;-67
2021/10/06 06:40:44;;;;;;;0.20;0.20;;;;;;;11.93;99.51;99848.66;5086638;28;20040;-66
2021/10/06 06:43:11;;;;;;;0.20;0.20;;;;;;;11.90;99.55;99855.63;5086170;28;20408;-65
2021/10/06 06:45:37;;;;;;;0.20;0.20;;;;;;;11.89;99.81;99855.66;5086635;28;20020;-65
2021/10/06 06:48:04;;;;;;;0.20;0.20;;;;;;;11.92;99.65;99852.16;5086501;28;20029;-65
2021/10/06 06:50:30;;;;;;;0.20;0.20;;;;;;;11.91;99.92;99856.50;5086366;28;20051;-66
2021/10/06 06:52:55;;;;;;;0.20;0.20;;;;;;;11.95;99.52;99857.28;5086055;28;20089;-65
2021/10/06 06:55:20;;;;;;;0.20;0.20;;;;;;;11.94;99.54;99858.16;5086226;28;20025;-66
2021/10/06 06:57:46;;;;;;;0.20;0.20;;;;;;;11.95;99.53;99870.28;5086219;28;20076;-65
2021/10/06 07:00:12;;;;;;;0.30;0.30;;;;;;;11.97;99.70;99877.16;5085972;28;20084;-65
2021/10/06 07:02:37;;;;;;;0.30;0.30;;;;;;;11.97;99.58;99884.09;5086148;28;20036;-66
2021/10/06 07:05:03;;;;;;;0.20;0.20;;;;;;;12.01;99.95;99893.56;5086334;28;20020;-66
2021/10/06 07:07:29;;;;;;;0.22;0.22;;;;;;;12.01;99.99;99902.22;5085905;28;20039;-66
2021/10/06 07:09:54;;;;;;;0.20;0.20;;;;;;;12.00;99.72;99897.03;5086156;28;20024;-66
2021/10/06 07:12:20;;;;;;;0.20;0.20;;;;;;;12.02;99.70;99906.53;5086176;28;20564;-66
2021/10/06 07:14:47;;;;;;;0.20;0.20;;;;;;;12.05;99.50;99912.53;5085906;28;20397;-66
2021/10/06 07:17:13;;;;;;;0.22;0.22;;;;;;;12.07;99.71;99914.25;5085808;28;20032;-66
2021/10/06 07:19:38;;;;;;;0.22;0.22;;;;;;;12.07;99.36;99914.25;5085767;28;20029;-66
2021/10/06 07:22:05;;;;;;;0.20;0.20;;;;;;;12.08;99.66;99918.56;5085524;28;20084;-66
2021/10/06 07:24:30;;;;;;;0.57;0.57;;;;;;;12.09;99.45;99922.03;5084658;28;20048;-66
2021/10/06 07:26:56;;;;;;;0.20;0.20;;;;;;;12.11;99.45;99928.91;5085657;28;20028;-66
2021/10/06 07:29:21;;;;;;;0.20;0.20;;;;;;;12.13;99.48;99931.47;5085519;28;20028;-68
2021/10/06 07:31:47;;;;;;;0.20;0.20;;;;;;;12.11;99.41;99931.50;5085643;28;20107;-66
2021/10/06 07:34:12;;;;;;;0.30;0.30;;;;;;;12.07;99.12;99935.06;5085680;28;20028;-66
2021/10/06 07:36:37;;;;;;;0.20;0.20;;;;;;;12.03;99.04;99942.06;5085736;28;20027;-66
2021/10/06 07:39:05;;;;;;;0.20;0.20;;;;;;;12.02;98.71;99945.56;5085337;28;20107;-66
2021/10/06 07:41:30;;;;;;;0.20;0.20;;;;;;;12.00;98.89;99949.06;5085390;28;20028;-66
2021/10/06 07:43:56;;;;;;;0.20;0.20;;;;;;;12.01;99.12;99963.81;5085224;28;20027;-66
2021/10/06 07:46:21;;;;;;;0.30;0.30;;;;;;;11.98;99.14;99971.69;5085347;28;20103;-66
2021/10/06 07:48:47;;;;;;;0.20;0.20;;;;;;;11.99;98.92;99989.00;5067009;28;20023;-66
2021/10/06 07:51:12;;;;;;;0.20;0.20;;;;;;;11.97;98.80;99986.44;5085182;28;20024;-67
2021/10/06 07:53:38;;;;;;;0.40;0.40;;;;;;;11.95;99.28;99992.56;5084755;28;20024;-67
2021/10/06 07:56:03;;;;;;;0.20;0.20;;;;;;;11.93;99.42;99996.94;5085231;28;20044;-67
2021/10/06 07:58:29;;;;;;;0.20;0.20;;;;;;;11.95;99.32;99992.56;5084991;28;20021;-68
2021/10/06 08:00:54;;;;;;;0.20;0.20;;;;;;;11.95;99.13;100003.81;5085033;28;20469;-68
2021/10/06 08:03:19;;;;;;;0.20;0.20;;;;;;;11.98;99.65;100002.91;5084876;28;20024;-66
2021/10/06 08:05:47;;;;;;;0.45;0.45;;;;;;;12.00;99.54;100001.09;5066790;28;20092;-66
2021/10/06 08:08:13;;;;;;;0.30;0.30;;;;;;;12.10;99.32;100007.88;5084618;28;20025;-66
2021/10/06 08:10:38;;;;;;;0.30;0.30;;;;;;;12.10;99.41;100007.00;5084764;28;20028;-65
2021/10/06 08:13:03;;;;;;;0.30;0.30;;;;;;;12.16;99.37;100021.66;5084762;28;20043;-66
2021/10/06 08:15:30;;;;;;;0.30;0.30;;;;;;;12.17;99.37;100031.16;5084678;28;20586;-65
2021/10/06 08:17:56;;;;;;;0.20;0.20;;;;;;;12.22;98.84;100032.75;5084763;28;20025;-65
2021/10/06 08:20:22;;;;;;;0.30;0.30;;;;;;;12.27;99.16;100035.25;5084268;28;20075;-65
2021/10/06 08:22:47;;;;;;;0.20;0.20;;;;;;;12.33;99.08;100045.53;5084504;28;20373;-65
2021/10/06 08:25:13;;;;;;;0.20;0.20;;;;;;;12.35;99.13;100046.38;5084360;28;20020;-65
2021/10/06 08:27:38;;;;;;;0.20;0.20;;;;;;;12.42;99.03;100054.91;5084537;28;20028;-64
2021/10/06 08:30:04;;;;;;;0.20;0.20;;;;;;;12.47;99.29;100050.47;5084334;28;20499;-64
2021/10/06 08:32:29;;;;;;;0.20;0.20;;;;;;;12.49;99.20;100051.28;5084624;28;20032;-64
2021/10/06 08:34:55;;;;;;;1.30;1.20;;;;;;;12.53;99.02;100054.66;5084150;28;20024;-64
2021/10/06 08:37:20;;;;;;;0.30;0.30;;;;;;;12.55;98.50;100063.31;5084252;28;20028;-64
2021/10/06 08:39:46;;;;;;;0.30;0.30;;;;;;;12.52;98.10;100064.22;5084199;28;20025;-65
2021/10/06 08:42:12;;;;;;;0.20;0.20;;;;;;;12.52;98.28;100074.63;5084220;28;20059;-65
2021/10/06 08:44:39;;;;;;;1.55;1.45;;;;;;;12.52;98.00;100079.00;5084004;28;20028;-65
2021/10/06 08:47:06;;;;;;;0.20;0.20;;;;;;;12.50;98.05;100081.66;5084133;28;20028;-66
2021/10/06 08:49:32;;;;;;;0.20;0.20;;;;;;;12.49;97.99;100087.72;5084219;28;20092;-67
2021/10/06 08:51:58;;;;;;;0.20;0.20;;;;;;;12.55;97.88;100091.09;5083926;28;20044;-67
2021/10/06 08:54:23;;;;;;;0.30;0.30;;;;;;;12.57;97.28;100095.38;5083835;28;20031;-67
2021/10/06 08:56:49;;;;;;;0.30;0.30;;;;;;;12.63;97.77;100102.19;5065961;28;20058;-67
2021/10/06 08:59:15;;;;;;;0.30;0.30;;;;;;;12.63;97.54;100102.19;5083860;28;20016;-68
2021/10/06 09:01:45;;;;;;;0.20;0.20;;;;;;;12.67;97.83;100105.59;5083839;28;20020;-66
2021/10/06 09:04:12;;;;;;;0.30;0.30;;;;;;;12.64;96.41;100112.59;5065814;28;20083;-66
2021/10/06 09:06:40;;;;;;;0.30;0.30;;;;;;;12.66;96.45;100116.91;5083835;28;20021;-67
2021/10/06 09:09:23;;;;;;;0.22;0.22;;;;;;;12.67;96.24;100126.44;5083554;28;20093;-68
2021/10/06 09:11:51;;;;;;;0.30;0.30;;;;;;;12.64;96.41;100122.13;5083732;28;20035;-69
2021/10/06 09:14:17;;;;;;;0.30;0.30;;;;;;;12.65;96.13;100129.09;5083558;28;20017;-69
2021/10/06 09:16:44;;;;;;;0.20;0.20;;;;;;;12.63;96.10;100139.53;5083501;28;20026;-69
2021/10/06 09:19:10;;;;;;;0.20;0.20;;;;;;;12.58;95.85;100141.38;5083623;28;20020;-69
2021/10/06 09:21:56;;;;;;;0.20;0.20;;;;;;;12.52;96.07;100133.69;5083580;28;20060;-68
2021/10/06 09:24:22;;;;;;;0.25;0.25;;;;;;;12.54;95.65;100147.50;5083293;28;20025;-67
2021/10/06 09:27:03;;;;;;;0.20;0.20;;;;;;;12.49;95.58;100154.59;5065436;28;20013;-66
2021/10/06 09:29:28;;;;;;;0.30;0.30;;;;;;;12.45;95.54;100158.97;5083635;28;20028;-66
2021/10/06 09:31:53;;;;;;;0.40;0.40;;;;;;;12.43;95.44;100157.31;5083394;28;20026;-66
2021/10/06 09:34:20;;;;;;;0.30;0.30;;;;;;;12.42;95.88;100159.03;5083242;28;20074;-67
2021/10/06 09:36:46;;;;;;;0.20;0.20;;;;;;;12.45;95.92;100169.41;5083484;28;20077;-67
2021/10/06 09:39:11;;;;;;;0.30;0.30;;;;;;;12.42;96.02;100173.81;5083060;28;20017;-67
2021/10/06 09:41:43;;;;;;;0.30;0.30;;;;;;;12.40;96.08;100173.84;5083347;28;20024;-66
2021/10/06 09:44:09;;;;;;;0.30;0.30;;;;;;;12.42;96.04;100177.28;5083163;28;20024;-66
2021/10/06 09:46:55;;;;;;;0.20;0.20;;;;;;;12.46;96.05;100185.88;5082821;28;20028;-66
2021/10/06 09:49:23;;;;;;;0.30;0.30;;;;;;;12.39;95.52;100191.22;5083231;28;20024;-66
2021/10/06 09:51:51;;;;;;;0.20;0.20;;;;;;;12.43;95.81;100191.16;5083193;28;20055;-65
2021/10/06 09:54:17;;;;;;;0.20;0.20;;;;;;;12.43;95.77;100198.97;5064959;28;20040;-65
2021/10/06 09:56:45;;;;;;;0.20;0.20;;;;;;;12.46;95.80;100198.91;5083239;28;20126;-66
2021/10/06 09:59:13;;;;;;;0.20;0.20;;;;;;;12.41;95.33;100203.34;5083304;28;20021;-65
2021/10/06 10:01:40;;;;;;;0.20;0.20;;;;;;;12.46;94.91;100207.56;5083243;28;20089;-66
2021/10/06 10:04:07;;;;;;;0.30;0.30;;;;;;;12.58;95.01;100205.59;5082727;28;20016;-67
2021/10/06 10:06:33;;;;;;;0.30;0.30;;;;;;;12.65;94.69;100207.22;5083330;28;20025;-68
2021/10/06 10:09:03;;;;;;;0.20;0.20;;;;;;;12.78;94.79;100218.22;5082808;28;20032;-67
2021/10/06 10:11:29;;;;;;;0.30;0.30;;;;;;;12.86;94.90;100218.91;5083005;28;20029;-69
2021/10/06 10:13:55;;;;;;;0.20;0.20;;;;;;;12.92;94.69;100214.47;5082998;28;20021;-69
2021/10/06 10:16:21;;;;;;;0.20;0.20;;;;;;;13.04;94.16;100223.75;5064994;28;20035;-69
2021/10/06 10:18:47;;;;;;;0.20;0.20;;;;;;;13.07;93.94;100226.28;5082966;28;20024;-70
2021/10/06 10:21:15;;;;;;;0.20;0.20;;;;;;;13.16;93.59;100227.84;5082710;28;20050;-70
2021/10/06 10:23:42;;;;;;;0.20;0.20;;;;;;;13.20;93.93;100229.50;5083061;28;20027;-70
2021/10/06 10:26:22;;;;;;;0.20;0.20;;;;;;;13.25;93.08;100241.56;5082834;28;20029;-71
2021/10/06 10:28:47;;;;;;;0.20;0.20;;;;;;;13.31;93.21;100243.16;5082908;28;20025;-71
2021/10/06 10:31:15;;;;;;;0.25;0.25;;;;;;;13.27;93.20;100250.19;5082914;28;20088;-70
2021/10/06 10:33:53;;;;;;;0.30;0.30;;;;;;;13.36;93.21;100253.47;5082978;28;20553;-70
2021/10/06 10:36:39;;;;;;;0.20;0.20;;;;;;;13.34;92.79;100253.50;5082889;28;20025;-70
2021/10/06 10:39:24;;;;;;;0.20;0.20;;;;;;;13.33;93.38;100246.59;5082727;28;20497;-70
2021/10/06 10:41:54;;;;;;;0.20;0.20;;;;;;;13.38;92.47;100260.38;5064572;28;20036;-71
2021/10/06 10:44:31;;;;;;;0.20;0.20;;;;;;;13.42;93.02;100261.16;5082702;28;20021;-71
2021/10/06 10:46:59;;;;;;;0.20;0.20;;;;;;;13.57;92.36;100269.56;5082603;28;20456;-71
2021/10/06 10:49:25;;;;;;;0.20;0.20;;;;;;;13.70;93.25;100271.00;5082921;28;20059;-70
2021/10/06 10:51:56;;;;;;;0.20;0.20;;;;;;;13.88;92.65;100274.91;5082685;28;20021;-70
2021/10/06 10:54:32;;;;;;;0.30;0.30;;;;;;;14.09;92.61;100283.09;5064470;28;20059;-70
2021/10/06 10:57:04;;;;;;;0.63;0.63;;;;;;;14.15;92.45;100276.00;5082948;28;20379;-70
2021/10/06 10:59:39;;;;;;;;;;;;;;;14.27;91.01;100286.13;5085833;28;20016;-69
2021/10/06 11:02:14;;;;;;;0.20;0.20;;;;;;;14.36;91.21;100291.13;5086391;28;19916;-69
2021/10/06 11:04:45;;;;;;;0.20;0.20;;;;;;;14.44;92.93;100292.69;5086263;28;20088;-69
2021/10/06 11:07:19;;;;;;;0.20;0.20;;;;;;;14.36;90.84;100293.72;5086141;28;20036;-69
2021/10/06 11:09:47;;;;;;;0.20;0.20;;;;;;;14.23;90.48;100295.78;5086017;28;20021;-69
2021/10/06 11:12:12;;;;;;;0.20;0.20;;;;;;;14.18;89.77;100296.81;5085976;28;20051;-69
2021/10/06 11:14:41;;;;;;;0.25;0.25;;;;;;;14.15;89.24;100302.13;5085822;28;20028;-69
2021/10/06 11:17:10;;;;;;;0.20;0.20;;;;;;;14.18;88.97;100305.53;5085722;28;20059;-69
2021/10/06 11:19:39;;;;;;;0.20;0.20;;;;;;;14.25;90.53;100306.19;5085947;28;20046;-69
2021/10/06 11:22:22;;;;;;;0.20;0.20;;;;;;;14.26;90.95;100310.53;5085610;28;20477;-68
2021/10/06 11:24:49;;;;;;;0.30;0.30;;;;;;;14.34;91.47;100312.97;5085761;28;20029;-68
2021/10/06 11:27:15;;;;;;;0.20;0.20;;;;;;;14.41;91.74;100318.88;5085921;28;20071;-69
2021/10/06 11:29:44;;;;;;;0.20;0.20;;;;;;;14.38;90.14;100312.84;5085775;28;20020;-69